createdAt,value
2023-03-06T00:00:53.497Z,99665.50
2023-03-06T00:05:57.681Z,99656.72
2023-03-06T00:10:59.976Z,99653.94
2023-03-06T00:16:02.101Z,99651.22
2023-03-06T00:21:08.064Z,99649.34
2023-03-06T00:26:10.846Z,99651.78
2023-03-06T00:31:12.961Z,99639.50
2023-03-06T00:36:15.015Z,99642.00
2023-03-06T00:41:17.019Z,99645.31
2023-03-06T00:46:18.976Z,99631.28
2023-03-06T00:51:21.986Z,99630.28
2023-03-06T00:56:24.338Z,99641.38
2023-03-06T01:01:26.273Z,99628.22
2023-03-06T01:06:28.530Z,99626.34
2023-03-06T01:11:30.972Z,99619.25
2023-03-06T01:16:33.376Z,99616.56
2023-03-06T01:21:35.335Z,99624.16
2023-03-06T01:26:37.418Z,99622.34
2023-03-06T01:31:39.659Z,99619.56
2023-03-06T01:36:41.802Z,99622.94
2023-03-06T01:41:43.845Z,99612.38
2023-03-06T01:46:46.479Z,99617.44
2023-03-06T01:51:50.922Z,99607.78
2023-03-06T01:56:57.585Z,99605.91
2023-03-06T02:07:21.208Z,99599.59
2023-03-06T02:12:24.157Z,99603.00
2023-03-06T02:17:27.088Z,99601.16
2023-03-06T02:22:43.806Z,99608.00
2023-03-06T02:27:45.963Z,99603.50
2023-03-06T02:32:47.945Z,99597.31
2023-03-06T02:37:50.269Z,99597.13
2023-03-06T02:42:58.355Z,99594.50
2023-03-06T02:48:00.357Z,99596.91
2023-03-06T02:53:02.371Z,99599.38
2023-03-06T02:58:05.259Z,99589.75
2023-03-06T03:03:08.087Z,99586.16
2023-03-06T03:08:10.260Z,99584.28
2023-03-06T03:13:12.249Z,99577.28
2023-03-06T03:18:14.194Z,99580.56
2023-03-06T03:23:16.153Z,99582.13
2023-03-06T03:28:19.220Z,99573.38
2023-03-06T03:33:21.173Z,99573.31
2023-03-06T03:38:23.190Z,99571.41
2023-03-06T03:43:25.089Z,99564.34
2023-03-06T03:48:27.018Z,99564.22
2023-03-06T03:53:29.000Z,99559.78
2023-03-06T03:58:31.095Z,99558.81
2023-03-06T04:03:33.106Z,99561.28
2023-03-06T04:08:35.869Z,99557.75
2023-03-06T04:13:37.861Z,99553.19
2023-03-06T04:18:40.016Z,99551.38
2023-03-06T04:23:41.987Z,99539.16
2023-03-06T04:28:44.029Z,99545.03
2023-03-06T04:33:46.081Z,99539.78
2023-03-06T04:38:48.065Z,99533.53
2023-03-06T04:43:50.207Z,99529.06
2023-03-06T04:48:52.194Z,99533.22
2023-03-06T04:53:54.326Z,99525.25
2023-03-06T04:58:56.382Z,99532.00
2023-03-06T05:03:58.395Z,99523.19
2023-03-06T05:09:00.373Z,99529.91
2023-03-06T05:14:02.365Z,99536.72
2023-03-06T05:19:04.428Z,99528.84
2023-03-06T05:24:06.688Z,99522.72
2023-03-06T05:29:08.685Z,99523.53
2023-03-06T05:34:14.346Z,99517.41
2023-03-06T05:39:16.547Z,99509.66
2023-03-06T05:44:18.510Z,99506.19
2023-03-06T05:49:20.518Z,99507.97
2023-03-06T05:54:24.622Z,99513.19
2023-03-06T05:59:28.805Z,99510.81
2023-03-06T06:04:30.853Z,99504.75
2023-03-06T06:09:33.056Z,99508.28
2023-03-06T06:14:35.243Z,99505.00
2023-03-06T06:19:37.259Z,99501.66
2023-03-06T06:24:39.444Z,99495.78
2023-03-06T06:29:41.507Z,99499.38
2023-03-06T06:34:43.557Z,99497.88
2023-03-06T06:39:45.573Z,99499.84
2023-03-06T06:44:47.690Z,99494.84
2023-03-06T06:49:54.466Z,99496.94
2023-03-06T06:54:56.715Z,99497.31
2023-03-06T06:59:58.898Z,99507.19
2023-03-06T07:05:04.720Z,99492.91
2023-03-06T07:10:12.559Z,99498.50
2023-03-06T07:15:16.055Z,99493.66
2023-03-06T07:20:18.206Z,99494.09
2023-03-06T07:25:21.026Z,99477.94
2023-03-06T07:30:24.389Z,99487.88
2023-03-06T07:35:26.720Z,99481.25
2023-03-06T07:40:28.875Z,99487.66
2023-03-06T07:45:30.945Z,99480.19
2023-03-06T07:50:33.663Z,99483.13
2023-03-06T07:55:35.635Z,99482.63
2023-03-06T08:00:37.596Z,99483.84
2023-03-06T08:05:40.002Z,99481.66
2023-03-06T08:10:48.230Z,99487.28
2023-03-06T08:15:50.239Z,99479.84
2023-03-06T08:21:08.334Z,99467.25
2023-03-06T08:26:16.421Z,99465.88
2023-03-06T08:31:37.225Z,99462.84
2023-03-06T08:36:39.298Z,99457.16
2023-03-06T08:41:42.561Z,99464.50
2023-03-06T08:46:44.408Z,99458.84
2023-03-06T08:51:46.448Z,99454.91
2023-03-06T08:56:48.545Z,99448.28
2023-03-06T09:01:50.545Z,99459.91
2023-03-06T09:06:54.502Z,99455.91
2023-03-06T09:11:57.534Z,99458.00
2023-03-06T09:16:59.767Z,99455.72
2023-03-06T09:22:01.879Z,99448.25
2023-03-06T09:27:04.011Z,99450.25
2023-03-06T09:32:06.518Z,99448.72
2023-03-06T09:37:08.569Z,99448.97
2023-03-06T09:42:17.744Z,99438.88
2023-03-06T09:47:28.953Z,99435.66
2023-03-06T09:52:41.368Z,99429.84
2023-03-06T09:57:56.318Z,99424.00
2023-03-06T10:03:16.288Z,99424.28
2023-03-06T10:08:36.755Z,99417.56
2023-03-06T10:13:46.291Z,99416.91
2023-03-06T10:18:48.419Z,99410.19
2023-03-06T10:24:10.742Z,99405.22
2023-03-06T10:29:12.704Z,99394.94
2023-03-06T10:34:24.717Z,99399.50
2023-03-06T10:39:28.709Z,99397.09
2023-03-06T10:44:30.939Z,99386.88
2023-03-06T10:49:36.524Z,99380.06
2023-03-06T10:54:41.912Z,99377.63
2023-03-06T10:59:55.694Z,99369.97
2023-03-06T11:05:00.219Z,99363.09
2023-03-06T11:10:19.361Z,99358.88
2023-03-06T11:15:24.637Z,99349.47
2023-03-06T11:20:49.985Z,99351.28
2023-03-06T11:25:57.291Z,99341.84
2023-03-06T11:31:08.517Z,99337.56
2023-03-06T11:36:16.605Z,99324.56
2023-03-06T11:41:38.724Z,99329.03
2023-03-06T11:46:49.987Z,99324.72
2023-03-06T11:51:56.378Z,99323.94
2023-03-06T11:57:02.645Z,99313.53
2023-03-06T12:02:15.268Z,99311.00
2023-03-06T12:07:28.214Z,99303.19
2023-03-06T12:12:48.646Z,99303.25
2023-03-06T12:18:01.662Z,99305.91
2023-03-06T12:23:40.972Z,99305.97
2023-03-06T12:29:01.052Z,99301.69
2023-03-06T12:34:38.420Z,99295.59
2023-03-06T12:40:22.391Z,99303.47
2023-03-06T12:45:33.682Z,99297.41
2023-03-06T12:50:37.502Z,99302.69
2023-03-06T12:55:50.144Z,99305.34
2023-03-06T13:01:04.751Z,99301.03
2023-03-06T13:06:21.748Z,99306.28
2023-03-06T13:11:34.860Z,99295.84
2023-03-06T13:16:36.986Z,99303.72
2023-03-06T13:21:41.888Z,99294.16
2023-03-06T13:26:43.860Z,99291.56
2023-03-06T13:31:45.997Z,99285.53
2023-03-06T13:36:48.204Z,99286.44
2023-03-06T13:41:54.374Z,99290.78
2023-03-06T13:47:18.037Z,99295.19
2023-03-06T13:52:34.134Z,99290.84
2023-03-06T13:57:51.316Z,99283.00
2023-03-06T14:02:58.293Z,99281.28
2023-03-06T14:08:23.356Z,99277.81
2023-03-06T14:13:41.859Z,99281.34
2023-03-06T14:18:51.678Z,99271.78
2023-03-06T14:24:20.620Z,99267.41
2023-03-06T14:29:25.561Z,99263.97
2023-03-06T14:34:33.314Z,99263.13
2023-03-06T14:39:41.856Z,99263.16
2023-03-06T14:44:44.138Z,99270.16
2023-03-06T14:49:46.114Z,99264.09
2023-03-06T14:54:49.166Z,99265.84
2023-03-06T14:59:56.763Z,99256.25
2023-03-06T15:05:11.918Z,99260.63
2023-03-06T15:10:26.407Z,99265.88
2023-03-06T15:15:31.364Z,99256.28
2023-03-06T15:20:39.003Z,99262.44
2023-03-06T15:25:41.113Z,99258.06
2023-03-06T15:30:43.289Z,99263.31
2023-03-06T15:36:03.173Z,99266.78
2023-03-06T15:41:19.971Z,99262.41
2023-03-06T15:46:22.094Z,99257.16
2023-03-06T15:51:24.628Z,99256.28
2023-03-06T15:56:33.803Z,99263.25
2023-03-06T16:01:37.412Z,99269.38
2023-03-06T16:06:39.844Z,99262.38
2023-03-06T16:11:45.414Z,99267.59
2023-03-06T16:16:49.683Z,99271.06
2023-03-06T16:21:52.172Z,99271.03
2023-03-06T16:26:55.316Z,99270.16
2023-03-06T16:31:59.634Z,99274.50
2023-03-06T16:37:02.507Z,99270.97
2023-03-06T16:42:05.027Z,99271.81
2023-03-06T16:47:11.928Z,99276.16
2023-03-06T16:52:14.907Z,99279.59
2023-03-06T16:57:18.886Z,99281.31
2023-03-06T17:02:21.652Z,99273.41
2023-03-06T17:07:24.548Z,99283.88
2023-03-06T17:12:26.912Z,99276.91
2023-03-06T17:17:29.372Z,99275.13
2023-03-06T17:22:34.652Z,99280.34
2023-03-06T17:27:38.520Z,99286.41
2023-03-06T17:32:41.452Z,99284.63
2023-03-06T17:37:43.862Z,99275.88
2023-03-06T17:42:48.012Z,99277.59
2023-03-06T17:47:54.711Z,99280.19
2023-03-06T17:52:57.483Z,99273.19
2023-03-06T17:57:59.902Z,99271.38
2023-03-06T18:03:03.011Z,99274.00
2023-03-06T18:08:09.139Z,99273.94
2023-03-06T18:13:12.265Z,99277.41
2023-03-06T18:18:16.077Z,99273.03
2023-03-06T18:23:19.996Z,99280.84
2023-03-06T18:28:23.146Z,99282.53
2023-03-06T18:33:26.290Z,99285.13
2023-03-06T18:38:29.354Z,99283.38
2023-03-06T18:43:31.899Z,99274.63
2023-03-06T18:48:35.277Z,99292.03
2023-03-06T18:53:42.210Z,99297.22
2023-03-06T18:58:46.680Z,99299.78
2023-03-06T19:03:50.206Z,99298.88
2023-03-06T19:08:57.168Z,99292.72
2023-03-06T19:14:01.063Z,99293.56
2023-03-06T19:19:04.273Z,99291.75
2023-03-06T19:24:08.338Z,99291.72
2023-03-06T19:29:11.674Z,99291.66
2023-03-06T19:34:16.311Z,99298.59
2023-03-06T19:39:21.817Z,99301.13
2023-03-06T19:44:25.179Z,99292.34
2023-03-06T19:49:29.681Z,99297.50
2023-03-06T19:54:32.716Z,99294.84
2023-03-06T19:59:35.770Z,99302.59
2023-03-06T20:04:39.210Z,99299.88
2023-03-06T20:09:42.351Z,99290.22
2023-03-06T20:14:47.034Z,99291.84
2023-03-06T20:19:50.084Z,99296.97
2023-03-06T20:24:53.492Z,99308.19
2023-03-06T20:29:56.734Z,99309.81
2023-03-06T20:35:00.002Z,99313.19
2023-03-06T20:40:02.751Z,99305.22
2023-03-06T20:45:09.926Z,99312.94
2023-03-06T20:50:16.428Z,99314.53
2023-03-06T20:55:19.061Z,99321.34
2023-03-06T21:00:22.252Z,99322.91
2023-03-06T21:05:25.390Z,99320.16
2023-03-06T21:10:28.209Z,99324.34
2023-03-06T21:15:31.602Z,99334.66
2023-03-06T21:20:34.715Z,99334.50
2023-03-06T21:25:37.035Z,99338.69
2023-03-06T21:30:39.611Z,99338.56
2023-03-06T21:35:43.182Z,99341.88
2023-03-06T21:40:45.779Z,99340.00
2023-03-06T21:45:49.377Z,99336.41
2023-03-06T21:50:51.466Z,99334.44
2023-03-06T21:55:53.451Z,99331.69
2023-03-06T22:00:55.614Z,99342.00
2023-03-06T22:06:08.162Z,99349.69
2023-03-06T22:11:13.336Z,99347.78
2023-03-06T22:16:16.041Z,99345.91
2023-03-06T22:21:21.106Z,99351.81
2023-03-06T22:26:23.475Z,99352.50
2023-03-06T22:31:28.803Z,99356.72
2023-03-06T22:36:31.828Z,99360.00
2023-03-06T22:41:33.847Z,99354.59
2023-03-06T22:46:35.930Z,99358.81
2023-03-06T22:51:38.342Z,99357.72
2023-03-06T22:56:40.395Z,99354.91
2023-03-06T23:01:43.543Z,99352.13
2023-03-06T23:06:47.196Z,99351.91
2023-03-06T23:11:50.043Z,99353.47
2023-03-06T23:16:52.054Z,99360.19
2023-03-06T23:21:54.053Z,99354.81
2023-03-06T23:26:56.087Z,99349.34
2023-03-06T23:31:58.047Z,99353.53
2023-03-06T23:37:00.131Z,99354.19
2023-03-06T23:42:02.128Z,99364.38
2023-03-06T23:47:04.167Z,99365.91
2023-03-06T23:52:06.205Z,99369.16
2023-03-06T23:57:08.165Z,99365.50
